sensor_id;sensor_type;location;lat;lon;timestamp;pressure;altitude;pressure_sealevel;temperature;humidity
13869;BME280;7004;48.206;16.402;2023-01-27T00:00:24;99880.28;;;2.87;81.63
13869;BME280;7004;48.206;16.402;2023-01-27T00:02:50;99873.19;;;2.60;80.45
13869;BME280;7004;48.206;16.402;2023-01-27T00:05:17;99877.59;;;2.58;82.13
13869;BME280;7004;48.206;16.402;2023-01-27T00:07:44;99872.91;;;2.38;81.12
13869;BME280;7004;48.206;16.402;2023-01-27T00:10:17;99872.59;;;2.51;81.48
13869;BME280;7004;48.206;16.402;2023-01-27T00:12:47;99870.91;;;2.48;79.90
13869;BME280;7004;48.206;16.402;2023-01-27T00:15:33;99871.41;;;2.62;80.62
13869;BME280;7004;48.206;16.402;2023-01-27T00:17:59;99874.31;;;2.21;81.60
13869;BME280;7004;48.206;16.402;2023-01-27T00:20:26;99871.94;;;2.43;78.98
13869;BME280;7004;48.206;16.402;2023-01-27T00:23:21;99876.94;;;2.52;79.60
13869;BME280;7004;48.206;16.402;2023-01-27T00:26:11;99871.25;;;2.36;78.62
13869;BME280;7004;48.206;16.402;2023-01-27T00:28:40;99879.53;;;2.52;78.18
13869;BME280;7004;48.206;16.402;2023-01-27T00:31:09;99877.50;;;2.30;78.77
13869;BME280;7004;48.206;16.402;2023-01-27T00:33:55;99879.91;;;2.38;78.80
13869;BME280;7004;48.206;16.402;2023-01-27T00:36:30;99879.44;;;2.55;80.08
13869;BME280;7004;48.206;16.402;2023-01-27T00:38:56;99878.44;;;2.59;76.12
13869;BME280;7004;48.206;16.402;2023-01-27T00:41:22;99873.84;;;2.36;76.60
13869;BME280;7004;48.206;16.402;2023-01-27T00:43:51;99872.34;;;2.29;76.89
13869;BME280;7004;48.206;16.402;2023-01-27T00:46:21;99878.28;;;2.65;77.50
13869;BME280;7004;48.206;16.402;2023-01-27T00:48:48;99876.75;;;2.25;77.04
13869;BME280;7004;48.206;16.402;2023-01-27T00:51:14;99881.69;;;2.36;75.94
13869;BME280;7004;48.206;16.402;2023-01-27T00:53:41;99878.38;;;2.62;74.77
13869;BME280;7004;48.206;16.402;2023-01-27T00:56:08;99883.59;;;2.92;74.37
13869;BME280;7004;48.206;16.402;2023-01-27T00:58:34;99887.72;;;2.69;75.55
13869;BME280;7004;48.206;16.402;2023-01-27T01:01:05;99891.91;;;2.75;76.43
13869;BME280;7004;48.206;16.402;2023-01-27T01:03:34;99891.69;;;2.51;76.35
13869;BME280;7004;48.206;16.402;2023-01-27T01:06:07;99895.53;;;2.39;76.45
13869;BME280;7004;48.206;16.402;2023-01-27T01:08:35;99893.75;;;2.71;74.60
13869;BME280;7004;48.206;16.402;2023-01-27T01:11:03;99886.38;;;2.56;75.86
13869;BME280;7004;48.206;16.402;2023-01-27T01:13:30;99886.16;;;2.31;77.85
13869;BME280;7004;48.206;16.402;2023-01-27T01:15:56;99889.66;;;2.62;76.13
13869;BME280;7004;48.206;16.402;2023-01-27T01:18:23;99886.44;;;2.84;74.52
13869;BME280;7004;48.206;16.402;2023-01-27T01:20:49;99883.34;;;2.70;75.97
13869;BME280;7004;48.206;16.402;2023-01-27T01:23:16;99882.72;;;2.61;74.20
13869;BME280;7004;48.206;16.402;2023-01-27T01:25:42;99886.13;;;2.95;73.61
13869;BME280;7004;48.206;16.402;2023-01-27T01:28:10;99880.81;;;2.68;73.32
13869;BME280;7004;48.206;16.402;2023-01-27T01:30:37;99881.75;;;2.66;74.26
13869;BME280;7004;48.206;16.402;2023-01-27T01:33:03;99877.13;;;2.44;74.75
13869;BME280;7004;48.206;16.402;2023-01-27T01:35:29;99878.75;;;2.48;74.24
13869;BME280;7004;48.206;16.402;2023-01-27T01:37:56;99884.66;;;2.86;73.56
13869;BME280;7004;48.206;16.402;2023-01-27T01:40:22;99877.38;;;2.66;73.40
13869;BME280;7004;48.206;16.402;2023-01-27T01:42:58;99879.47;;;2.53;73.31
13869;BME280;7004;48.206;16.402;2023-01-27T01:48:06;99868.31;;;2.48;74.36
13869;BME280;7004;48.206;16.402;2023-01-27T01:50:36;99867.34;;;2.82;73.22
13869;BME280;7004;48.206;16.402;2023-01-27T01:53:06;99865.28;;;2.00;75.14
13869;BME280;7004;48.206;16.402;2023-01-27T01:55:33;99871.69;;;2.21;75.02
13869;BME280;7004;48.206;16.402;2023-01-27T01:58:02;99870.03;;;2.49;73.70
13869;BME280;7004;48.206;16.402;2023-01-27T02:00:30;99863.78;;;2.24;76.13
13869;BME280;7004;48.206;16.402;2023-01-27T02:02:56;99867.09;;;1.98;77.41
13869;BME280;7004;48.206;16.402;2023-01-27T02:05:29;99869.72;;;1.96;77.37
13869;BME280;7004;48.206;16.402;2023-01-27T02:10:40;99858.56;;;1.91;77.65
13869;BME280;7004;48.206;16.402;2023-01-27T02:13:07;99865.59;;;2.20;77.10
13869;BME280;7004;48.206;16.402;2023-01-27T02:15:33;99855.72;;;2.00;77.44
13869;BME280;7004;48.206;16.402;2023-01-27T02:18:00;99855.72;;;2.00;77.20
13869;BME280;7004;48.206;16.402;2023-01-27T02:20:46;99852.41;;;1.93;78.18
13869;BME280;7004;48.206;16.402;2023-01-27T02:28:58;99855.91;;;2.25;74.55
13869;BME280;7004;48.206;16.402;2023-01-27T02:31:26;99846.28;;;2.27;74.82
13869;BME280;7004;48.206;16.402;2023-01-27T02:33:56;99840.88;;;2.33;76.60
13869;BME280;7004;48.206;16.402;2023-01-27T02:36:26;99845.84;;;2.11;77.33
13869;BME280;7004;48.206;16.402;2023-01-27T02:38:56;99845.50;;;1.92;77.36
13869;BME280;7004;48.206;16.402;2023-01-27T02:43:55;99827.28;;;1.89;77.11
13869;BME280;7004;48.206;16.402;2023-01-27T02:46:22;99835.53;;;2.07;76.82
13869;BME280;7004;48.206;16.402;2023-01-27T02:48:48;99826.63;;;1.83;77.76
13869;BME280;7004;48.206;16.402;2023-01-27T02:51:14;99830.13;;;1.82;78.08
13869;BME280;7004;48.206;16.402;2023-01-27T02:53:42;99833.78;;;1.74;76.39
13869;BME280;7004;48.206;16.402;2023-01-27T02:56:08;99833.16;;;2.30;77.04
13869;BME280;7004;48.206;16.402;2023-01-27T02:58:34;99826.00;;;1.73;78.28
13869;BME280;7004;48.206;16.402;2023-01-27T03:01:00;99823.56;;;2.00;77.20
13869;BME280;7004;48.206;16.402;2023-01-27T03:03:27;99826.94;;;1.70;77.38
13869;BME280;7004;48.206;16.402;2023-01-27T03:05:53;99831.78;;;2.17;77.00
13869;BME280;7004;48.206;16.402;2023-01-27T03:08:19;99828.44;;;2.43;75.75
13869;BME280;7004;48.206;16.402;2023-01-27T03:10:53;99832.28;;;1.99;76.67
13869;BME280;7004;48.206;16.402;2023-01-27T03:13:24;99823.94;;;2.18;74.93
13869;BME280;7004;48.206;16.402;2023-01-27T03:15:53;99826.50;;;1.53;76.83
13869;BME280;7004;48.206;16.402;2023-01-27T03:18:38;99827.84;;;1.69;75.88
13869;BME280;7004;48.206;16.402;2023-01-27T03:21:06;99826.25;;;1.96;76.38
13869;BME280;7004;48.206;16.402;2023-01-27T03:23:38;99827.47;;;1.83;75.61
13869;BME280;7004;48.206;16.402;2023-01-27T03:26:07;99829.91;;;1.89;75.98
13869;BME280;7004;48.206;16.402;2023-01-27T03:28:33;99822.63;;;2.02;77.04
13869;BME280;7004;48.206;16.402;2023-01-27T03:31:01;99820.59;;;1.81;75.74
13869;BME280;7004;48.206;16.402;2023-01-27T03:33:27;99823.81;;;1.90;77.16
13869;BME280;7004;48.206;16.402;2023-01-27T03:35:54;99812.63;;;1.87;77.17
13869;BME280;7004;48.206;16.402;2023-01-27T03:38:39;99826.25;;;1.96;77.18
13869;BME280;7004;48.206;16.402;2023-01-27T03:41:24;99823.38;;;1.73;76.18
13869;BME280;7004;48.206;16.402;2023-01-27T03:44:10;99814.72;;;1.72;77.32
13869;BME280;7004;48.206;16.402;2023-01-27T03:46:54;99823.16;;;1.82;77.35
13869;BME280;7004;48.206;16.402;2023-01-27T03:49:21;99812.13;;;1.71;76.88
13869;BME280;7004;48.206;16.402;2023-01-27T03:51:47;99811.41;;;1.66;76.80
13869;BME280;7004;48.206;16.402;2023-01-27T03:54:13;99820.31;;;1.57;77.63
13869;BME280;7004;48.206;16.402;2023-01-27T03:56:39;99817.38;;;2.04;76.91
13869;BME280;7004;48.206;16.402;2023-01-27T03:59:05;99813.63;;;1.81;76.96
13869;BME280;7004;48.206;16.402;2023-01-27T04:01:31;99818.25;;;1.70;77.58
13869;BME280;7004;48.206;16.402;2023-01-27T04:03:57;99818.56;;;1.58;78.21
13869;BME280;7004;48.206;16.402;2023-01-27T04:06:42;99823.09;;;1.84;76.48
13869;BME280;7004;48.206;16.402;2023-01-27T04:09:31;99823.31;;;1.76;77.29
13869;BME280;7004;48.206;16.402;2023-01-27T04:12:01;99819.84;;;1.75;77.29
13869;BME280;7004;48.206;16.402;2023-01-27T04:14:37;99814.38;;;2.17;78.21
13869;BME280;7004;48.206;16.402;2023-01-27T04:17:10;99813.06;;;1.68;77.39
13869;BME280;7004;48.206;16.402;2023-01-27T04:19:41;99818.06;;;1.78;76.45
13869;BME280;7004;48.206;16.402;2023-01-27T04:22:11;99827.75;;;1.38;77.68
13869;BME280;7004;48.206;16.402;2023-01-27T04:24:37;99813.91;;;1.70;77.02
13869;BME280;7004;48.206;16.402;2023-01-27T04:27:10;99812.31;;;1.65;77.71
13869;BME280;7004;48.206;16.402;2023-01-27T04:29:39;99815.84;;;1.62;76.96
13869;BME280;7004;48.206;16.402;2023-01-27T04:32:11;99823.50;;;1.68;76.87
13869;BME280;7004;48.206;16.402;2023-01-27T04:34:39;99816.66;;;1.64;78.17
13869;BME280;7004;48.206;16.402;2023-01-27T04:37:07;99822.28;;;1.47;77.93
13869;BME280;7004;48.206;16.402;2023-01-27T04:39:34;99818.72;;;1.86;77.43
13869;BME280;7004;48.206;16.402;2023-01-27T04:42:01;99819.88;;;2.08;76.17
13869;BME280;7004;48.206;16.402;2023-01-27T04:44:27;99821.47;;;2.12;75.45
13869;BME280;7004;48.206;16.402;2023-01-27T04:46:53;99829.13;;;1.86;75.41
13869;BME280;7004;48.206;16.402;2023-01-27T04:49:20;99824.81;;;2.17;74.26
13869;BME280;7004;48.206;16.402;2023-01-27T04:51:47;99826.47;;;2.20;74.42
13869;BME280;7004;48.206;16.402;2023-01-27T04:54:13;99824.38;;;2.02;74.19
13869;BME280;7004;48.206;16.402;2023-01-27T04:56:52;99823.56;;;2.00;75.17
13869;BME280;7004;48.206;16.402;2023-01-27T04:59:18;99824.41;;;1.67;75.30
13869;BME280;7004;48.206;16.402;2023-01-27T05:01:44;99817.88;;;1.85;74.63
13869;BME280;7004;48.206;16.402;2023-01-27T05:04:10;99817.69;;;1.91;75.21
13869;BME280;7004;48.206;16.402;2023-01-27T05:06:38;99817.16;;;1.79;75.14
13869;BME280;7004;48.206;16.402;2023-01-27T05:09:04;99818.75;;;1.50;76.65
13869;BME280;7004;48.206;16.402;2023-01-27T05:11:30;99815.13;;;1.56;77.52
13869;BME280;7004;48.206;16.402;2023-01-27T05:13:56;99814.88;;;1.66;76.52
13869;BME280;7004;48.206;16.402;2023-01-27T05:16:23;99817.88;;;1.85;75.02
13869;BME280;7004;48.206;16.402;2023-01-27T05:18:51;99815.84;;;1.62;76.52
13869;BME280;7004;48.206;16.402;2023-01-27T05:21:21;99821.41;;;2.15;74.52
13869;BME280;7004;48.206;16.402;2023-01-27T05:23:48;99822.22;;;1.85;76.57
13869;BME280;7004;48.206;16.402;2023-01-27T05:26:26;99820.38;;;2.21;74.47
13869;BME280;7004;48.206;16.402;2023-01-27T05:28:55;99823.28;;;2.42;74.53
13869;BME280;7004;48.206;16.402;2023-01-27T05:31:28;99828.97;;;1.92;74.77
13869;BME280;7004;48.206;16.402;2023-01-27T05:33:59;99836.84;;;2.23;76.04
13869;BME280;7004;48.206;16.402;2023-01-27T05:36:26;99828.91;;;1.95;75.84
13869;BME280;7004;48.206;16.402;2023-01-27T05:38:53;99829.03;;;1.90;75.89
13869;BME280;7004;48.206;16.402;2023-01-27T05:41:21;99824.03;;;1.81;77.07
13869;BME280;7004;48.206;16.402;2023-01-27T05:43:52;99829.19;;;2.17;74.93
13869;BME280;7004;48.206;16.402;2023-01-27T05:46:22;99827.09;;;1.64;76.22
13869;BME280;7004;48.206;16.402;2023-01-27T05:48:54;99829.66;;;1.66;76.55
13869;BME280;7004;48.206;16.402;2023-01-27T05:51:22;99831.91;;;2.12;75.23
13869;BME280;7004;48.206;16.402;2023-01-27T05:53:49;99824.88;;;2.16;74.56
13869;BME280;7004;48.206;16.402;2023-01-27T05:56:18;99827.00;;;2.33;73.33
13869;BME280;7004;48.206;16.402;2023-01-27T05:58:44;99831.84;;;2.15;73.21
13869;BME280;7004;48.206;16.402;2023-01-27T06:01:15;99824.75;;;2.21;75.56
13869;BME280;7004;48.206;16.402;2023-01-27T06:03:42;99835.00;;;2.27;74.37
13869;BME280;7004;48.206;16.402;2023-01-27T06:06:10;99832.03;;;1.75;75.52
13869;BME280;7004;48.206;16.402;2023-01-27T06:08:37;99834.25;;;2.23;74.83
13869;BME280;7004;48.206;16.402;2023-01-27T06:11:04;99828.00;;;1.96;75.95
13869;BME280;7004;48.206;16.402;2023-01-27T06:13:31;99839.50;;;1.55;76.39
13869;BME280;7004;48.206;16.402;2023-01-27T06:16:12;99834.38;;;2.17;74.15
13869;BME280;7004;48.206;16.402;2023-01-27T06:18:39;99838.13;;;2.08;75.26
13869;BME280;7004;48.206;16.402;2023-01-27T06:21:08;99831.19;;;2.38;74.83
13869;BME280;7004;48.206;16.402;2023-01-27T06:23:36;99837.19;;;2.11;74.67
13869;BME280;7004;48.206;16.402;2023-01-27T06:26:12;99844.16;;;2.42;73.63
13869;BME280;7004;48.206;16.402;2023-01-27T06:28:38;99834.88;;;2.00;74.65
13869;BME280;7004;48.206;16.402;2023-01-27T06:33:35;99834.88;;;1.99;74.02
13869;BME280;7004;48.206;16.402;2023-01-27T06:36:09;99828.94;;;2.26;74.20
13869;BME280;7004;48.206;16.402;2023-01-27T06:38:35;99823.41;;;2.37;73.06
13869;BME280;7004;48.206;16.402;2023-01-27T06:41:02;99826.16;;;1.67;75.39
13869;BME280;7004;48.206;16.402;2023-01-27T06:43:29;99841.03;;;2.29;74.68
13869;BME280;7004;48.206;16.402;2023-01-27T06:45:56;99841.41;;;1.82;75.08
13869;BME280;7004;48.206;16.402;2023-01-27T06:48:24;99846.16;;;1.99;74.95
13869;BME280;7004;48.206;16.402;2023-01-27T06:50:54;99849.53;;;1.70;75.07
13869;BME280;7004;48.206;16.402;2023-01-27T06:53:21;99837.81;;;2.19;73.48
13869;BME280;7004;48.206;16.402;2023-01-27T06:55:48;99836.53;;;1.68;74.99
13869;BME280;7004;48.206;16.402;2023-01-27T06:58:19;99840.97;;;1.65;74.89
13869;BME280;7004;48.206;16.402;2023-01-27T07:00:45;99840.00;;;2.03;73.07
13869;BME280;7004;48.206;16.402;2023-01-27T07:03:11;99843.81;;;1.90;73.54
13869;BME280;7004;48.206;16.402;2023-01-27T07:05:39;99838.41;;;1.98;74.26
13869;BME280;7004;48.206;16.402;2023-01-27T07:08:06;99844.59;;;1.93;74.84
13869;BME280;7004;48.206;16.402;2023-01-27T07:10:32;99846.50;;;1.87;74.40
13869;BME280;7004;48.206;16.402;2023-01-27T07:13:10;99848.50;;;1.77;74.77
13869;BME280;7004;48.206;16.402;2023-01-27T07:15:37;99845.69;;;1.85;74.60
13869;BME280;7004;48.206;16.402;2023-01-27T07:18:03;99858.03;;;2.11;72.72
13869;BME280;7004;48.206;16.402;2023-01-27T07:20:31;99863.00;;;2.20;73.17
13869;BME280;7004;48.206;16.402;2023-01-27T07:23:03;99861.28;;;1.86;73.24
13869;BME280;7004;48.206;16.402;2023-01-27T07:25:31;99856.59;;;1.99;73.31
13869;BME280;7004;48.206;16.402;2023-01-27T07:27:59;99872.63;;;1.84;72.66
13869;BME280;7004;48.206;16.402;2023-01-27T07:30:26;99865.81;;;1.78;72.70
13869;BME280;7004;48.206;16.402;2023-01-27T07:32:53;99868.16;;;1.89;72.86
13869;BME280;7004;48.206;16.402;2023-01-27T07:35:21;99869.47;;;1.71;72.75
13869;BME280;7004;48.206;16.402;2023-01-27T07:37:47;99869.34;;;1.77;72.28
13869;BME280;7004;48.206;16.402;2023-01-27T07:40:14;99867.28;;;2.23;70.88
13869;BME280;7004;48.206;16.402;2023-01-27T07:42:40;99863.72;;;2.25;70.88
13869;BME280;7004;48.206;16.402;2023-01-27T07:45:07;99865.91;;;1.75;70.93
13869;BME280;7004;48.206;16.402;2023-01-27T07:47:34;99867.47;;;1.82;70.48
13869;BME280;7004;48.206;16.402;2023-01-27T07:50:00;99864.75;;;2.19;70.74
13869;BME280;7004;48.206;16.402;2023-01-27T07:52:27;99866.09;;;2.02;72.15
13869;BME280;7004;48.206;16.402;2023-01-27T07:54:53;99870.16;;;2.12;70.73
13869;BME280;7004;48.206;16.402;2023-01-27T07:57:19;99882.69;;;1.63;72.47
13869;BME280;7004;48.206;16.402;2023-01-27T07:59:45;99877.09;;;1.79;72.11
13869;BME280;7004;48.206;16.402;2023-01-27T08:02:11;99872.31;;;1.96;70.34
13869;BME280;7004;48.206;16.402;2023-01-27T08:04:37;99881.84;;;1.97;71.41
13869;BME280;7004;48.206;16.402;2023-01-27T08:07:04;99883.47;;;2.03;70.67
13869;BME280;7004;48.206;16.402;2023-01-27T08:09:31;99884.19;;;1.73;71.51
13869;BME280;7004;48.206;16.402;2023-01-27T08:11:57;99877.25;;;2.07;72.32
13869;BME280;7004;48.206;16.402;2023-01-27T08:14:23;99878.75;;;1.83;73.40
13869;BME280;7004;48.206;16.402;2023-01-27T08:16:49;99881.34;;;1.84;71.75
13869;BME280;7004;48.206;16.402;2023-01-27T08:19:15;99881.25;;;1.87;72.43
13869;BME280;7004;48.206;16.402;2023-01-27T08:21:41;99883.84;;;2.20;70.81
13869;BME280;7004;48.206;16.402;2023-01-27T08:24:07;99881.88;;;2.30;70.78
13869;BME280;7004;48.206;16.402;2023-01-27T08:26:35;99885.72;;;2.15;70.81
13869;BME280;7004;48.206;16.402;2023-01-27T08:29:01;99885.00;;;2.43;71.01
13869;BME280;7004;48.206;16.402;2023-01-27T08:31:27;99890.03;;;2.49;70.89
13869;BME280;7004;48.206;16.402;2023-01-27T08:33:53;99888.31;;;2.49;71.06
13869;BME280;7004;48.206;16.402;2023-01-27T08:36:22;99891.16;;;2.40;69.81
13869;BME280;7004;48.206;16.402;2023-01-27T08:38:49;99895.78;;;1.96;71.22
13869;BME280;7004;48.206;16.402;2023-01-27T08:41:24;99898.16;;;2.38;70.54
13869;BME280;7004;48.206;16.402;2023-01-27T08:43:52;99906.38;;;1.90;70.78
13869;BME280;7004;48.206;16.402;2023-01-27T08:46:18;99901.94;;;1.93;72.22
13869;BME280;7004;48.206;16.402;2023-01-27T08:48:44;99903.53;;;1.99;71.63
13869;BME280;7004;48.206;16.402;2023-01-27T08:51:12;99913.53;;;1.82;71.05
13869;BME280;7004;48.206;16.402;2023-01-27T08:53:40;99905.38;;;2.28;69.30
13869;BME280;7004;48.206;16.402;2023-01-27T08:56:11;99907.53;;;2.76;68.89
13869;BME280;7004;48.206;16.402;2023-01-27T08:58:37;99900.94;;;2.32;69.02
13869;BME280;7004;48.206;16.402;2023-01-27T09:01:06;99908.41;;;2.13;69.73
13869;BME280;7004;48.206;16.402;2023-01-27T09:03:34;99903.50;;;2.33;68.38
13869;BME280;7004;48.206;16.402;2023-01-27T09:06:01;99908.13;;;2.24;69.29
13869;BME280;7004;48.206;16.402;2023-01-27T09:08:27;99906.19;;;2.30;69.37
13869;BME280;7004;48.206;16.402;2023-01-27T09:10:54;99911.16;;;2.07;70.87
13869;BME280;7004;48.206;16.402;2023-01-27T09:13:20;99908.13;;;2.24;69.77
13869;BME280;7004;48.206;16.402;2023-01-27T09:15:52;99905.13;;;2.37;71.37
13869;BME280;7004;48.206;16.402;2023-01-27T09:18:19;99899.59;;;2.17;70.25
13869;BME280;7004;48.206;16.402;2023-01-27T09:20:46;99908.88;;;2.27;69.73
13869;BME280;7004;48.206;16.402;2023-01-27T09:23:12;99902.19;;;2.18;70.87
13869;BME280;7004;48.206;16.402;2023-01-27T09:25:38;99912.09;;;2.04;70.46
13869;BME280;7004;48.206;16.402;2023-01-27T09:28:06;99910.31;;;2.06;71.85
13869;BME280;7004;48.206;16.402;2023-01-27T09:30:43;99910.84;;;1.85;72.22
13869;BME280;7004;48.206;16.402;2023-01-27T09:33:14;99909.91;;;2.22;72.84
13869;BME280;7004;48.206;16.402;2023-01-27T09:36:00;99911.50;;;2.27;73.66
13869;BME280;7004;48.206;16.402;2023-01-27T09:38:32;99921.25;;;2.21;74.53
13869;BME280;7004;48.206;16.402;2023-01-27T09:44:35;99920.66;;;2.09;76.33
13869;BME280;7004;48.206;16.402;2023-01-27T09:56:07;99919.09;;;2.36;78.10
13869;BME280;7004;48.206;16.402;2023-01-27T09:59:11;99927.50;;;1.79;79.47
13869;BME280;7004;48.206;16.402;2023-01-27T10:02:21;99915.19;;;2.51;77.30
13869;BME280;7004;48.206;16.402;2023-01-27T10:11:20;99902.06;;;2.23;78.69
13869;BME280;7004;48.206;16.402;2023-01-27T10:14:20;99904.25;;;1.70;78.68
13869;BME280;7004;48.206;16.402;2023-01-27T10:20:14;99898.00;;;1.77;81.65
13869;BME280;7004;48.206;16.402;2023-01-27T10:23:21;99895.25;;;1.83;82.50
13869;BME280;7004;48.206;16.402;2023-01-27T10:26:15;99894.56;;;1.77;82.46
13869;BME280;7004;48.206;16.402;2023-01-27T10:28:50;99903.88;;;1.85;80.98
13869;BME280;7004;48.206;16.402;2023-01-27T10:31:28;99893.94;;;2.00;80.28
13869;BME280;7004;48.206;16.402;2023-01-27T10:34:18;99894.94;;;1.95;79.91
13869;BME280;7004;48.206;16.402;2023-01-27T10:37:31;99898.81;;;2.46;77.99
13869;BME280;7004;48.206;16.402;2023-01-27T10:40:17;99896.28;;;2.43;76.58
13869;BME280;7004;48.206;16.402;2023-01-27T10:48:51;99891.13;;;2.09;77.36
13869;BME280;7004;48.206;16.402;2023-01-27T10:51:37;99890.91;;;2.49;75.26
13869;BME280;7004;48.206;16.402;2023-01-27T10:54:52;99886.94;;;2.03;77.57
13869;BME280;7004;48.206;16.402;2023-01-27T10:57:58;99889.06;;;2.20;76.84
13869;BME280;7004;48.206;16.402;2023-01-27T11:00:41;99893.69;;;1.76;78.40
13869;BME280;7004;48.206;16.402;2023-01-27T11:03:45;99900.81;;;1.68;79.83
13869;BME280;7004;48.206;16.402;2023-01-27T11:06:26;99889.28;;;2.12;80.43
13869;BME280;7004;48.206;16.402;2023-01-27T11:09:32;99889.09;;;1.86;80.36
13869;BME280;7004;48.206;16.402;2023-01-27T11:12:08;99890.28;;;1.74;80.39
13869;BME280;7004;48.206;16.402;2023-01-27T11:14:48;99886.75;;;1.75;80.36
13869;BME280;7004;48.206;16.402;2023-01-27T11:17:33;99877.28;;;1.72;81.44
13869;BME280;7004;48.206;16.402;2023-01-27T11:20:31;99886.03;;;1.70;81.62
13869;BME280;7004;48.206;16.402;2023-01-27T11:23:11;99892.19;;;1.66;80.31
13869;BME280;7004;48.206;16.402;2023-01-27T11:26:00;99882.22;;;1.47;81.50
13869;BME280;7004;48.206;16.402;2023-01-27T11:31:53;99877.63;;;1.93;81.26
13869;BME280;7004;48.206;16.402;2023-01-27T11:37:00;99879.78;;;2.10;80.00
13869;BME280;7004;48.206;16.402;2023-01-27T11:39:31;99888.88;;;1.59;83.71
13869;BME280;7004;48.206;16.402;2023-01-27T11:42:01;99875.38;;;2.45;85.21
13869;BME280;7004;48.206;16.402;2023-01-27T11:44:32;99874.63;;;2.71;83.29
13869;BME280;7004;48.206;16.402;2023-01-27T11:47:00;99863.09;;;5.32;98.23
13869;BME280;7004;48.206;16.402;2023-01-27T11:49:30;99867.38;;;3.91;85.85
13869;BME280;7004;48.206;16.402;2023-01-27T11:52:14;99879.25;;;3.20;78.32
13869;BME280;7004;48.206;16.402;2023-01-27T11:54:46;99876.03;;;3.12;80.70
13869;BME280;7004;48.206;16.402;2023-01-27T11:57:21;99875.78;;;2.92;80.55
13869;BME280;7004;48.206;16.402;2023-01-27T12:00:03;99872.41;;;3.16;80.37
13869;BME280;7004;48.206;16.402;2023-01-27T12:02:41;99872.13;;;2.04;84.90
13869;BME280;7004;48.206;16.402;2023-01-27T12:05:34;99861.75;;;2.33;85.17
13869;BME280;7004;48.206;16.402;2023-01-27T12:08:04;99862.41;;;1.76;85.82
13869;BME280;7004;48.206;16.402;2023-01-27T12:10:36;99864.94;;;2.12;84.15
13869;BME280;7004;48.206;16.402;2023-01-27T12:13:24;99853.47;;;2.19;85.11
13869;BME280;7004;48.206;16.402;2023-01-27T12:16:01;99855.75;;;2.31;82.25
13869;BME280;7004;48.206;16.402;2023-01-27T12:18:33;99856.47;;;2.05;83.06
13869;BME280;7004;48.206;16.402;2023-01-27T12:21:06;99852.78;;;1.78;82.45
13869;BME280;7004;48.206;16.402;2023-01-27T12:23:36;99849.84;;;2.86;80.31
13869;BME280;7004;48.206;16.402;2023-01-27T12:26:10;99846.16;;;2.63;79.17
13869;BME280;7004;48.206;16.402;2023-01-27T12:31:15;99846.59;;;2.48;75.75
13869;BME280;7004;48.206;16.402;2023-01-27T12:33:48;99845.84;;;2.44;75.71
13869;BME280;7004;48.206;16.402;2023-01-27T12:36:22;99847.53;;;2.45;75.32
13869;BME280;7004;48.206;16.402;2023-01-27T12:38:58;99843.56;;;2.61;74.98
13869;BME280;7004;48.206;16.402;2023-01-27T12:41:29;99838.94;;;2.42;75.48
13869;BME280;7004;48.206;16.402;2023-01-27T12:44:16;99836.78;;;2.56;73.62
13869;BME280;7004;48.206;16.402;2023-01-27T12:47:02;99833.56;;;2.46;73.29
13869;BME280;7004;48.206;16.402;2023-01-27T12:49:35;99832.59;;;2.50;74.22
13869;BME280;7004;48.206;16.402;2023-01-27T12:52:14;99826.88;;;2.67;72.36
13869;BME280;7004;48.206;16.402;2023-01-27T12:54:42;99831.34;;;2.63;72.56
13869;BME280;7004;48.206;16.402;2023-01-27T12:57:15;99832.47;;;2.55;72.24
13869;BME280;7004;48.206;16.402;2023-01-27T12:59:56;99827.78;;;2.66;71.56
13869;BME280;7004;48.206;16.402;2023-01-27T13:02:26;99831.53;;;2.26;71.88
13869;BME280;7004;48.206;16.402;2023-01-27T13:05:02;99829.16;;;2.18;71.24
13869;BME280;7004;48.206;16.402;2023-01-27T13:07:46;99829.91;;;1.89;71.31
13869;BME280;7004;48.206;16.402;2023-01-27T13:10:21;99836.06;;;2.19;70.98
13869;BME280;7004;48.206;16.402;2023-01-27T13:12:54;99831.69;;;2.20;71.22
13869;BME280;7004;48.206;16.402;2023-01-27T13:15:27;99833.97;;;2.32;70.62
13869;BME280;7004;48.206;16.402;2023-01-27T13:18:12;99838.50;;;2.26;70.36
13869;BME280;7004;48.206;16.402;2023-01-27T13:20:55;99838.59;;;2.83;69.81
13869;BME280;7004;48.206;16.402;2023-01-27T13:23:34;99834.97;;;2.88;69.40
13869;BME280;7004;48.206;16.402;2023-01-27T13:31:17;99842.59;;;2.66;69.62
13869;BME280;7004;48.206;16.402;2023-01-27T13:36:39;99835.41;;;1.79;69.11
13869;BME280;7004;48.206;16.402;2023-01-27T13:39:45;99835.19;;;2.21;69.52
13869;BME280;7004;48.206;16.402;2023-01-27T13:42:43;99838.84;;;2.45;68.00
13869;BME280;7004;48.206;16.402;2023-01-27T13:45:53;99839.78;;;2.11;69.79
13869;BME280;7004;48.206;16.402;2023-01-27T13:48:27;99836.69;;;1.96;69.25
13869;BME280;7004;48.206;16.402;2023-01-27T13:51:13;99835.84;;;2.27;68.62
13869;BME280;7004;48.206;16.402;2023-01-27T13:53:40;99838.38;;;2.30;68.11
13869;BME280;7004;48.206;16.402;2023-01-27T13:59:04;99839.34;;;1.95;67.75
13869;BME280;7004;48.206;16.402;2023-01-27T14:05:07;99848.22;;;2.52;69.12
13869;BME280;7004;48.206;16.402;2023-01-27T14:08:32;99853.72;;;2.41;70.14
13869;BME280;7004;48.206;16.402;2023-01-27T14:17:41;99856.72;;;2.27;71.62
13869;BME280;7004;48.206;16.402;2023-01-27T14:23:53;99872.28;;;2.30;69.67
13869;BME280;7004;48.206;16.402;2023-01-27T14:27:13;99865.22;;;2.03;70.28
13869;BME280;7004;48.206;16.402;2023-01-27T14:30:11;99872.06;;;1.72;72.18
13869;BME280;7004;48.206;16.402;2023-01-27T14:33:14;99878.09;;;2.40;72.04
13869;BME280;7004;48.206;16.402;2023-01-27T14:36:17;99867.00;;;2.01;72.07
13869;BME280;7004;48.206;16.402;2023-01-27T14:42:12;99872.31;;;1.98;72.51
13869;BME280;7004;48.206;16.402;2023-01-27T14:50:22;99886.16;;;1.26;76.95
13869;BME280;7004;48.206;16.402;2023-01-27T14:57:08;99880.97;;;1.26;80.29
13869;BME280;7004;48.206;16.402;2023-01-27T15:10:24;99892.34;;;1.60;83.16
13869;BME280;7004;48.206;16.402;2023-01-27T15:22:18;99908.66;;;0.92;84.58
13869;BME280;7004;48.206;16.402;2023-01-27T15:25:17;99911.50;;;0.79;86.25
13869;BME280;7004;48.206;16.402;2023-01-27T15:27:49;99916.47;;;1.30;82.85
13869;BME280;7004;48.206;16.402;2023-01-27T15:30:26;99931.25;;;1.30;82.68